Time;durP1;ratioP1;P1;durP2;ratioP2;P2;SDS_P1;SDS_P2;PMS_P1;PMS_P2;Temp;Humidity;BMP_temperature;BMP_pressure;BME280_temperature;BME280_humidity;BME280_pressure;Samples;Min_cycle;Max_cycle;Signal;HPM_P1;HPM_P2
2022/05/31 00:01:04;;;;;;;0.10;0.10;;;;;;;13.55;58.63;101491.97;5049473;28;20025;-83
2022/05/31 00:03:30;;;;;;;0.10;0.10;;;;;;;13.53;57.56;101493.81;5056024;28;20025;-82
2022/05/31 00:05:56;;;;;;;0.10;0.10;;;;;;;13.49;57.86;101500.09;5057489;28;20041;-82
2022/05/31 00:08:22;;;;;;;0.10;0.10;;;;;;;13.47;58.23;101499.28;5058370;28;20158;-80
2022/05/31 00:10:49;;;;;;;0.10;0.10;;;;;;;13.42;58.72;101502.03;5060039;28;20035;-81
2022/05/31 00:13:15;;;;;;;0.10;0.10;;;;;;;13.40;57.81;101497.66;5064566;28;20060;-83
2022/05/31 00:15:41;;;;;;;0.10;0.10;;;;;;;13.37;58.14;101500.31;5057620;28;20799;-83
2022/05/31 00:18:08;;;;;;;0.70;0.35;;;;;;;13.33;58.56;101496.84;5058815;28;20029;-81
2022/05/31 00:20:34;;;;;;;0.10;0.10;;;;;;;13.30;58.45;101496.94;5051450;28;20402;-81
2022/05/31 00:23:01;;;;;;;0.10;0.10;;;;;;;13.27;58.63;101497.88;5052393;28;20032;-81
2022/05/31 00:25:27;;;;;;;0.10;0.10;;;;;;;13.25;58.99;101496.16;5041239;28;20025;-81
2022/05/31 00:27:54;;;;;;;0.10;0.10;;;;;;;13.21;58.13;101495.34;5044200;28;20025;-80
2022/05/31 00:30:20;;;;;;;0.10;0.10;;;;;;;13.20;58.77;101506.88;5045843;28;20093;-80
2022/05/31 00:32:49;;;;;;;0.10;0.10;;;;;;;13.22;58.62;101504.19;5046354;28;20030;-81
2022/05/31 00:35:20;;;;;;;0.00;0.00;;;;;;;13.20;58.83;101508.69;5047872;28;20029;-83
2022/05/31 00:37:46;;;;;;;0.08;0.08;;;;;;;13.18;58.87;101505.16;5045694;28;20057;-81
2022/05/31 00:40:16;;;;;;;0.10;0.10;;;;;;;13.17;59.09;101506.97;5045588;28;20041;-80
2022/05/31 00:42:53;;;;;;;0.00;0.00;;;;;;;13.20;59.65;101498.91;5045584;28;20063;-80
2022/05/31 00:45:24;;;;;;;0.10;0.10;;;;;;;13.14;59.12;101501.69;5046516;28;20029;-80
2022/05/31 00:47:51;;;;;;;0.10;0.10;;;;;;;13.16;58.75;101499.88;5044194;28;20499;-80
2022/05/31 00:50:24;;;;;;;0.10;0.10;;;;;;;13.20;59.25;101496.25;5044138;28;20021;-81
2022/05/31 00:52:55;;;;;;;0.10;0.10;;;;;;;13.09;59.47;101499.13;5044470;28;20093;-82
2022/05/31 00:55:29;;;;;;;1.05;0.70;;;;;;;13.05;58.70;101504.56;5046459;28;20036;-83
2022/05/31 00:58:15;;;;;;;0.10;0.10;;;;;;;13.02;59.23;101491.28;5041484;28;20033;-80
2022/05/31 01:00:42;;;;;;;0.10;0.10;;;;;;;12.96;59.91;101502.94;5043578;28;20036;-80
2022/05/31 01:03:12;;;;;;;0.03;0.03;;;;;;;12.93;59.49;101493.25;5045240;28;20026;-81
2022/05/31 01:05:39;;;;;;;0.08;0.08;;;;;;;12.92;59.67;101491.50;5043018;28;20029;-81
2022/05/31 01:08:05;;;;;;;0.20;0.20;;;;;;;12.90;59.93;101487.97;5045159;28;20060;-79
2022/05/31 01:10:31;;;;;;;0.00;0.00;;;;;;;12.90;59.54;101487.97;5043649;28;20423;-81
2022/05/31 01:12:58;;;;;;;0.10;0.10;;;;;;;12.92;59.96;101491.50;5045182;28;20033;-82
2022/05/31 01:15:24;;;;;;;0.22;0.22;;;;;;;12.87;59.22;101488.03;5044347;28;20060;-82
2022/05/31 01:17:50;;;;;;;0.10;0.10;;;;;;;12.86;60.19;101488.06;5041202;28;20082;-79
2022/05/31 01:20:19;;;;;;;0.08;0.08;;;;;;;12.85;59.83;101484.53;5037204;28;20037;-78
2022/05/31 01:28:23;;;;;;;0.15;0.15;;;;;;;12.83;59.68;101488.97;5079139;28;20129;-81
2022/05/31 01:30:56;;;;;;;0.00;0.00;;;;;;;12.82;60.00;101495.19;5061058;28;20100;-80
2022/05/31 01:36:07;;;;;;;0.10;0.10;;;;;;;12.78;59.56;101488.19;5120560;27;20146;-83
2022/05/31 01:38:44;;;;;;;0.08;0.08;;;;;;;12.78;59.80;101485.53;5116141;28;20028;-82
2022/05/31 01:41:20;;;;;;;0.00;0.00;;;;;;;12.76;59.38;101484.69;5124952;28;20047;-81
2022/05/31 01:43:51;;;;;;;0.03;0.03;;;;;;;12.71;59.71;101489.22;5123396;27;20024;-80
2022/05/31 01:46:24;;;;;;;0.00;0.00;;;;;;;12.70;59.92;101484.81;5113741;28;20039;-81
2022/05/31 01:48:51;;;;;;;0.00;0.00;;;;;;;12.73;59.61;101487.41;5114836;28;20043;-80
2022/05/31 01:51:18;;;;;;;0.00;0.00;;;;;;;12.71;59.51;101491.88;5116977;28;20128;-80
2022/05/31 01:53:45;;;;;;;0.10;0.10;;;;;;;12.70;59.33;101484.81;5120207;28;20062;-82
2022/05/31 01:56:13;;;;;;;0.00;0.00;;;;;;;12.69;60.01;101483.06;5119193;28;20085;-82
2022/05/31 01:58:43;;;;;;;0.00;0.00;;;;;;;12.70;60.21;101482.16;5121270;28;20034;-82
2022/05/31 02:01:11;;;;;;;0.55;0.55;;;;;;;12.67;59.54;101482.22;5121785;28;20027;-81
2022/05/31 02:03:40;;;;;;;0.10;0.10;;;;;;;12.58;59.85;101478.81;5117226;28;20494;-82
2022/05/31 02:09:00;;;;;;;0.10;0.10;;;;;;;12.51;60.53;101479.84;5097343;27;20459;-82
2022/05/31 02:11:28;;;;;;;0.00;0.00;;;;;;;12.52;60.53;101476.25;5094042;28;20036;-82
2022/05/31 02:13:54;;;;;;;0.00;0.00;;;;;;;12.51;60.43;101469.22;5099932;28;20043;-82
2022/05/31 02:16:20;;;;;;;0.05;0.05;;;;;;;12.52;60.65;101475.38;5090680;28;20033;-82
2022/05/31 02:21:36;;;;;;;0.68;0.68;;;;;;;12.56;60.87;101469.09;5098001;28;20036;-81
2022/05/31 02:24:08;;;;;;;1.10;1.10;;;;;;;12.53;60.25;101472.69;5096042;28;20032;-81
2022/05/31 02:26:35;;;;;;;0.00;0.00;;;;;;;12.46;60.51;101471.03;5092431;28;20028;-82
2022/05/31 02:29:02;;;;;;;0.00;0.00;;;;;;;12.51;60.94;101470.97;5090876;28;20035;-82
2022/05/31 02:31:29;;;;;;;0.00;0.00;;;;;;;12.54;60.42;101474.47;5091734;28;20033;-83
2022/05/31 02:33:56;;;;;;;0.10;0.10;;;;;;;12.53;60.24;101470.03;5088726;28;20040;-83
2022/05/31 02:36:22;;;;;;;0.05;0.05;;;;;;;12.55;60.63;101473.56;5090758;28;20074;-83
2022/05/31 02:38:48;;;;;;;0.10;0.10;;;;;;;12.57;60.37;101474.41;5091199;22;20124;-76
2022/05/31 02:41:15;;;;;;;0.30;0.30;;;;;;;12.59;60.18;101471.72;5065642;28;20119;-76
2022/05/31 02:43:41;;;;;;;0.40;0.40;;;;;;;12.63;60.29;101465.44;5066670;28;20024;-77
2022/05/31 02:46:07;;;;;;;0.10;0.10;;;;;;;12.64;61.05;101467.19;5067318;28;20062;-77
2022/05/31 02:48:33;;;;;;;0.00;0.00;;;;;;;12.67;60.14;101468.91;5081810;28;20041;-77
2022/05/31 02:51:00;;;;;;;0.10;0.10;;;;;;;12.68;60.51;101465.34;5078399;28;20515;-77
2022/05/31 02:53:26;;;;;;;0.10;0.10;;;;;;;12.69;60.29;101461.81;5069430;28;20099;-77
2022/05/31 02:55:53;;;;;;;0.43;0.43;;;;;;;12.70;61.26;101458.25;5086798;28;20028;-77
2022/05/31 02:58:20;;;;;;;0.10;0.10;;;;;;;12.71;60.93;101460.88;5086502;28;20031;-77
2022/05/31 03:00:46;;;;;;;0.05;0.05;;;;;;;12.73;60.63;101464.34;5084779;28;20094;-76
2022/05/31 03:03:12;;;;;;;0.38;0.38;;;;;;;12.73;60.01;101455.50;5085617;28;20031;-77
2022/05/31 03:05:38;;;;;;;0.00;0.00;;;;;;;12.73;59.94;101458.16;5086251;28;20031;-76
2022/05/31 03:08:05;;;;;;;0.10;0.10;;;;;;;12.73;60.60;101458.16;5084449;28;20081;-76
2022/05/31 03:10:36;;;;;;;0.10;0.10;;;;;;;12.74;60.23;101458.13;5085649;28;20472;-76
2022/05/31 03:13:03;;;;;;;0.00;0.00;;;;;;;12.72;60.19;101456.41;5089391;28;20032;-76
2022/05/31 03:15:34;;;;;;;0.10;0.10;;;;;;;12.74;60.54;101462.59;5094176;28;20043;-76
2022/05/31 03:18:08;;;;;;;0.10;0.10;;;;;;;12.76;60.00;101458.09;5084655;28;20136;-76
2022/05/31 03:20:40;;;;;;;0.00;0.00;;;;;;;12.71;60.92;101465.28;5077488;28;20512;-76
2022/05/31 03:26:07;;;;;;;0.00;0.00;;;;;;;12.74;60.59;101455.47;5108637;27;20051;-76
2022/05/31 03:28:36;;;;;;;0.10;0.10;;;;;;;12.75;61.04;101457.22;5102257;28;20073;-76
2022/05/31 03:31:03;;;;;;;0.03;0.03;;;;;;;12.77;60.94;101454.53;5106560;28;20501;-77
2022/05/31 03:33:31;;;;;;;0.10;0.10;;;;;;;12.79;60.71;101452.72;5105907;28;20038;-76
2022/05/31 03:35:57;;;;;;;2.08;0.68;;;;;;;12.82;60.85;101455.31;5111487;27;20031;-76
2022/05/31 03:38:23;;;;;;;0.00;0.00;;;;;;;12.86;60.92;101449.06;5096278;28;20704;-76
2022/05/31 03:40:57;;;;;;;0.10;0.10;;;;;;;12.89;60.56;101448.97;5104859;28;20062;-76
2022/05/31 03:43:28;;;;;;;0.10;0.10;;;;;;;12.92;61.00;101448.94;5106290;28;20069;-76
2022/05/31 03:45:57;;;;;;;0.03;0.03;;;;;;;12.92;60.82;101443.59;5089066;28;20036;-76
2022/05/31 03:48:23;;;;;;;0.03;0.03;;;;;;;12.95;61.09;101451.50;5100199;28;20039;-76
2022/05/31 03:51:07;;;;;;;0.10;0.10;;;;;;;13.08;61.06;101446.84;5105403;28;20089;-76
2022/05/31 03:53:34;;;;;;;0.00;0.00;;;;;;;13.03;61.25;101445.16;5111229;27;20462;-76
2022/05/31 03:56:04;;;;;;;0.08;0.08;;;;;;;13.08;60.59;101446.84;5100282;27;20024;-76
2022/05/31 03:58:31;;;;;;;0.00;0.00;;;;;;;13.11;61.65;101443.22;5098284;28;20020;-76
2022/05/31 04:00:58;;;;;;;0.00;0.00;;;;;;;13.16;61.02;101437.78;5111533;28;20032;-76
2022/05/31 04:03:25;;;;;;;0.10;0.10;;;;;;;13.20;60.97;101447.47;5104136;28;20039;-76
2022/05/31 04:05:52;;;;;;;0.10;0.10;;;;;;;13.23;61.15;101436.75;5102986;28;20027;-76
2022/05/31 04:08:19;;;;;;;0.43;0.40;;;;;;;13.24;61.06;101439.38;5108936;28;20092;-76
2022/05/31 04:10:46;;;;;;;0.03;0.03;;;;;;;13.29;60.85;101441.09;5114915;27;20023;-76
2022/05/31 04:13:14;;;;;;;0.00;0.00;;;;;;;13.32;61.39;101441.00;5103463;28;20043;-76
2022/05/31 04:15:41;;;;;;;0.38;0.38;;;;;;;13.36;61.21;101445.38;5109511;28;20122;-76
2022/05/31 04:18:09;;;;;;;0.10;0.10;;;;;;;13.37;60.91;101429.41;5103143;28;20024;-76
2022/05/31 04:20:37;;;;;;;0.00;0.00;;;;;;;13.40;61.12;101439.97;5102534;28;20028;-76
2022/05/31 04:26:03;;;;;;;0.00;0.00;;;;;;;13.50;61.51;101429.13;5111949;28;20043;-76
2022/05/31 04:28:30;;;;;;;0.10;0.10;;;;;;;13.53;61.62;101439.69;5096832;28;20082;-76
2022/05/31 04:30:56;;;;;;;0.10;0.10;;;;;;;13.55;61.00;101437.88;5106532;28;20069;-76
2022/05/31 04:33:22;;;;;;;0.10;0.10;;;;;;;13.58;61.04;101433.34;5107153;28;20038;-76
2022/05/31 04:35:56;;;;;;;0.10;0.10;;;;;;;13.62;61.38;101435.94;5095217;28;20110;-76
2022/05/31 04:38:22;;;;;;;0.10;0.10;;;;;;;13.64;61.40;101434.13;5081681;28;20029;-76
2022/05/31 04:40:48;;;;;;;0.00;0.00;;;;;;;13.67;61.06;101440.25;5087483;28;20111;-76
2022/05/31 04:43:15;;;;;;;0.20;0.20;;;;;;;13.71;61.54;101433.94;5093752;28;20040;-76
2022/05/31 04:45:41;;;;;;;0.00;0.00;;;;;;;13.74;61.49;101435.66;5086075;28;20021;-76
2022/05/31 04:48:08;;;;;;;0.00;0.00;;;;;;;13.78;61.75;101433.78;5081331;28;20123;-76
2022/05/31 04:50:35;;;;;;;0.00;0.00;;;;;;;13.82;61.45;101430.13;5091264;28;20435;-76
2022/05/31 04:53:02;;;;;;;0.10;0.10;;;;;;;13.85;61.07;101433.59;5088189;28;20067;-76
2022/05/31 04:55:29;;;;;;;0.00;0.00;;;;;;;13.90;61.47;101429.03;5088154;28;20031;-76
2022/05/31 04:57:56;;;;;;;0.10;0.10;;;;;;;13.91;61.71;101430.78;5088433;28;20091;-76
2022/05/31 05:00:22;;;;;;;0.00;0.00;;;;;;;13.96;61.46;101435.16;5081930;28;20516;-77
2022/05/31 05:02:48;;;;;;;0.10;0.10;;;;;;;13.89;61.21;101432.63;5079591;28;20039;-76
2022/05/31 05:05:14;;;;;;;0.00;0.00;;;;;;;14.01;60.86;101434.09;5082673;28;20119;-76
2022/05/31 05:07:40;;;;;;;0.15;0.15;;;;;;;14.07;61.07;101427.75;5086837;28;20489;-77
2022/05/31 05:10:08;;;;;;;0.00;0.00;;;;;;;14.08;61.04;101429.47;5085844;28;20110;-76
2022/05/31 05:12:34;;;;;;;0.40;0.32;;;;;;;14.07;61.47;101427.75;5084212;28;20036;-76
2022/05/31 05:15:01;;;;;;;0.20;0.20;;;;;;;14.11;61.19;101432.09;5084845;28;20059;-76
2022/05/31 05:17:27;;;;;;;0.75;0.75;;;;;;;14.13;61.74;101429.38;5082166;28;20032;-76
2022/05/31 05:19:53;;;;;;;0.10;0.10;;;;;;;14.16;61.21;101430.16;5090900;28;20044;-76
2022/05/31 05:22:20;;;;;;;3.25;0.90;;;;;;;14.21;60.62;101422.94;5093331;28;20385;-76
2022/05/31 05:24:46;;;;;;;0.13;0.13;;;;;;;14.26;61.05;101422.81;5079063;28;20025;-76
2022/05/31 05:27:12;;;;;;;0.00;0.00;;;;;;;14.30;61.09;101416.47;5078954;28;20039;-76
2022/05/31 05:32:27;;;;;;;0.20;0.20;;;;;;;14.38;60.52;101410.94;5086868;28;20082;-76
2022/05/31 05:34:53;;;;;;;0.10;0.10;;;;;;;14.47;60.18;101418.72;5100243;28;20020;-76
2022/05/31 05:37:20;;;;;;;1.17;0.30;;;;;;;14.54;60.69;101408.75;5083857;28;20498;-76
2022/05/31 05:39:46;;;;;;;0.10;0.10;;;;;;;14.65;60.71;101403.16;5092498;28;20036;-77
2022/05/31 05:42:14;;;;;;;0.03;0.03;;;;;;;14.77;60.30;101405.47;5098238;28;20027;-77
2022/05/31 05:44:40;;;;;;;0.10;0.10;;;;;;;14.85;60.58;101400.81;5099108;28;20043;-77
2022/05/31 05:47:09;;;;;;;0.85;0.85;;;;;;;15.00;59.77;101401.25;5082896;28;20028;-77
2022/05/31 05:49:36;;;;;;;0.10;0.10;;;;;;;15.09;59.55;101401.00;5082492;28;20397;-76
2022/05/31 05:52:06;;;;;;;0.10;0.10;;;;;;;15.18;59.49;101400.69;5096009;28;20404;-76
2022/05/31 05:54:32;;;;;;;0.05;0.05;;;;;;;15.33;59.04;101403.84;5101850;28;20031;-76
2022/05/31 05:56:59;;;;;;;0.00;0.00;;;;;;;15.45;59.26;101398.13;5094940;28;20039;-76
2022/05/31 05:59:25;;;;;;;0.00;0.00;;;;;;;15.55;58.93;101397.81;5082035;28;20119;-76
2022/05/31 06:01:56;;;;;;;0.00;0.00;;;;;;;15.61;58.64;101393.13;5086508;28;20039;-76
2022/05/31 06:07:19;;;;;;;0.00;0.00;;;;;;;15.93;58.47;101393.06;5098449;27;1190164;-75
2022/05/31 06:09:54;;;;;;;0.10;0.10;;;;;;;15.97;58.41;101389.34;5109055;28;20031;-75
2022/05/31 06:12:23;;;;;;;0.00;0.00;;;;;;;16.05;58.21;101392.63;5103310;28;20031;-76
2022/05/31 06:14:57;;;;;;;0.00;0.00;;;;;;;16.14;57.72;101392.31;5097624;28;20058;-76
2022/05/31 06:17:31;;;;;;;0.47;0.47;;;;;;;16.21;57.10;101392.09;5114708;28;20028;-76
2022/05/31 06:20:01;;;;;;;0.00;0.00;;;;;;;16.26;56.28;101391.03;5105674;28;20034;-75
2022/05/31 06:22:29;;;;;;;0.00;0.00;;;;;;;16.30;56.68;101386.44;5112744;28;20063;-75
2022/05/31 06:24:58;;;;;;;0.05;0.05;;;;;;;16.42;56.33;101396.66;5114266;28;20059;-76
2022/05/31 06:27:27;;;;;;;0.05;0.05;;;;;;;16.49;55.75;101390.19;5108521;28;20032;-76
2022/05/31 06:29:53;;;;;;;0.13;0.13;;;;;;;16.60;56.08;101395.16;5097077;28;20028;-76
2022/05/31 06:32:20;;;;;;;0.13;0.13;;;;;;;16.68;56.31;101396.69;5096086;28;20063;-76
2022/05/31 06:34:46;;;;;;;0.85;0.85;;;;;;;16.72;55.88;101393.81;5101855;28;20054;-76
2022/05/31 06:37:15;;;;;;;0.00;0.00;;;;;;;16.72;55.02;101387.59;5110815;27;20042;-75
2022/05/31 06:39:44;;;;;;;0.10;0.10;;;;;;;16.76;55.25;101384.75;5104081;28;20481;-75
2022/05/31 06:42:11;;;;;;;0.00;0.00;;;;;;;16.84;55.43;101392.50;5101008;28;20394;-75
2022/05/31 06:44:40;;;;;;;0.10;0.10;;;;;;;16.94;55.90;101387.72;5094896;27;20031;-76
2022/05/31 06:47:07;;;;;;;0.32;0.32;;;;;;;17.07;55.43;101388.09;5106043;28;20578;-76
2022/05/31 06:49:35;;;;;;;0.10;0.10;;;;;;;17.18;55.03;101390.38;5094368;28;20130;-76
2022/05/31 06:57:40;;;;;;;0.10;0.10;;;;;;;17.46;54.38;101388.34;5111201;28;20136;-75
2022/05/31 07:00:09;;;;;;;0.10;0.10;;;;;;;17.55;54.79;101388.91;5112803;28;20181;-76
2022/05/31 07:02:36;;;;;;;0.00;0.00;;;;;;;17.56;52.66;101385.31;5109454;28;21325;-76
2022/05/31 07:05:03;;;;;;;0.30;0.30;;;;;;;17.64;52.78;101391.19;5104485;28;20790;-75
2022/05/31 07:07:29;;;;;;;0.10;0.10;;;;;;;17.72;51.79;101389.09;5100016;28;20052;-76
2022/05/31 07:09:55;;;;;;;0.13;0.13;;;;;;;17.84;52.88;101385.00;5110727;28;20027;-75
2022/05/31 07:12:22;;;;;;;0.10;0.10;;;;;;;17.92;52.14;101385.56;5100637;28;20207;-75
2022/05/31 07:14:48;;;;;;;0.00;0.00;;;;;;;18.04;53.12;101388.69;5085867;28;20036;-75
2022/05/31 07:17:14;;;;;;;0.13;0.13;;;;;;;18.05;51.92;101387.75;5094602;28;20135;-75
2022/05/31 07:19:42;;;;;;;0.05;0.05;;;;;;;18.10;51.11;101388.44;5092475;28;20568;-75
2022/05/31 07:22:08;;;;;;;0.05;0.05;;;;;;;18.20;51.12;101392.47;5092325;28;20028;-75
2022/05/31 07:24:34;;;;;;;0.30;0.30;;;;;;;18.27;49.13;101393.94;5088286;28;20052;-75
2022/05/31 07:27:00;;;;;;;0.00;0.00;;;;;;;18.35;50.02;101390.91;5090939;28;20040;-75
2022/05/31 07:29:28;;;;;;;0.20;0.20;;;;;;;18.37;50.69;101388.19;5082123;28;20028;-74
2022/05/31 07:31:54;;;;;;;0.15;0.15;;;;;;;18.39;49.55;101387.19;5082450;28;20115;-74
2022/05/31 07:34:23;;;;;;;14.27;1.48;;;;;;;18.42;48.58;101384.34;5081504;28;20038;-74
2022/05/31 07:36:49;;;;;;;0.20;0.20;;;;;;;18.43;49.22;101388.78;5080747;28;20122;-74
2022/05/31 07:39:18;;;;;;;0.65;0.65;;;;;;;18.43;50.62;101383.41;5079159;28;20054;-74
2022/05/31 07:41:46;;;;;;;0.15;0.15;;;;;;;18.34;49.00;101383.81;5069078;28;20032;-74
2022/05/31 07:44:14;;;;;;;0.10;0.10;;;;;;;18.30;48.52;101381.34;5071363;28;20048;-76
2022/05/31 07:46:40;;;;;;;1.35;1.35;;;;;;;18.25;47.69;101374.34;5088001;28;20114;-76
2022/05/31 07:49:06;;;;;;;0.00;0.00;;;;;;;18.21;47.37;101383.47;5089859;28;20032;-75
2022/05/31 07:51:32;;;;;;;0.00;0.00;;;;;;;18.26;47.68;101383.28;5088038;28;20024;-75
2022/05/31 07:53:58;;;;;;;0.10;0.10;;;;;;;18.31;48.13;101380.41;5096518;28;20031;-75
2022/05/31 07:56:26;;;;;;;0.00;0.00;;;;;;;18.35;47.29;101382.88;5082559;28;20025;-77
2022/05/31 07:58:52;;;;;;;0.00;0.00;;;;;;;18.43;46.91;101375.38;5089753;28;20118;-76
2022/05/31 08:01:22;;;;;;;0.00;0.00;;;;;;;18.48;46.66;101371.59;5085882;28;20040;-75
2022/05/31 08:03:49;;;;;;;0.20;0.20;;;;;;;18.53;45.11;101373.16;5083467;28;20115;-75
2022/05/31 08:06:19;;;;;;;0.00;0.00;;;;;;;18.68;46.79;101366.22;5085858;28;20085;-75
2022/05/31 08:08:46;;;;;;;0.98;0.98;;;;;;;18.72;44.28;101373.16;5092361;28;20050;-74
2022/05/31 08:11:16;;;;;;;0.00;0.00;;;;;;;18.82;44.31;101370.94;5090113;28;20028;-75
2022/05/31 08:13:43;;;;;;;0.80;0.80;;;;;;;18.88;43.94;101369.78;5088398;28;20058;-75
2022/05/31 08:16:11;;;;;;;0.00;0.00;;;;;;;18.90;45.52;101358.06;5092301;28;20146;-75
2022/05/31 08:18:38;;;;;;;0.10;0.10;;;;;;;18.90;44.10;101366.13;5087721;28;20028;-75
2022/05/31 08:24:12;;;;;;;0.10;0.10;;;;;;;18.95;44.59;101352.47;5082777;28;20383;-76
2022/05/31 08:26:39;;;;;;;0.10;0.10;;;;;;;18.95;43.97;101360.50;5082217;28;20044;-75
2022/05/31 08:29:05;;;;;;;0.10;0.10;;;;;;;18.97;44.70;101361.31;5075479;28;20443;-75
2022/05/31 08:31:34;;;;;;;0.00;0.00;;;;;;;18.94;44.38;101361.47;5090292;28;20471;-75
2022/05/31 08:34:01;;;;;;;0.00;0.00;;;;;;;19.03;45.35;101366.41;5092037;28;20028;-76
2022/05/31 08:36:27;;;;;;;0.75;0.75;;;;;;;19.07;44.78;101365.31;5091909;28;20031;-76
2022/05/31 08:38:54;;;;;;;0.00;0.00;;;;;;;19.17;45.01;101357.69;5091324;28;20035;-75
2022/05/31 08:46:59;;;;;;;0.10;0.10;;;;;;;19.48;41.52;101347.28;5005024;28;20394;-74
2022/05/31 08:58:39;;;;;;;0.10;0.10;;;;;;;19.51;45.28;101344.41;5107738;28;20039;-75
2022/05/31 09:01:06;;;;;;;0.10;0.10;;;;;;;19.37;45.05;101354.03;5107200;28;20032;-76
2022/05/31 09:03:52;;;;;;;0.20;0.20;;;;;;;19.35;45.27;101349.69;5108356;28;20028;-75
2022/05/31 09:06:27;;;;;;;0.00;0.00;;;;;;;19.31;45.54;101348.94;5108353;28;20027;-75
2022/05/31 09:11:41;;;;;;;0.10;0.10;;;;;;;19.67;44.03;101342.69;5066851;28;20394;-75
2022/05/31 09:14:16;;;;;;;0.00;0.00;;;;;;;19.84;44.68;101341.88;5067550;28;20741;-75
2022/05/31 09:17:11;;;;;;;0.35;0.35;;;;;;;19.91;44.79;101347.81;5067867;28;20108;-75
2022/05/31 09:19:44;;;;;;;0.00;0.00;;;;;;;19.80;44.49;101342.09;5047696;28;20501;-75
2022/05/31 09:22:10;;;;;;;0.10;0.10;;;;;;;19.72;45.36;101348.72;5046568;28;20028;-76
2022/05/31 09:24:41;;;;;;;0.10;0.10;;;;;;;19.69;45.01;101342.66;5045191;28;20099;-75
2022/05/31 09:27:12;;;;;;;0.30;0.30;;;;;;;19.64;45.49;101345.56;5047671;28;20479;-75
2022/05/31 09:41:49;;;;;;;0.20;0.20;;;;;;;20.29;43.10;101339.56;5085647;28;20898;-75
2022/05/31 09:47:22;;;;;;;0.52;0.40;;;;;;;20.62;40.48;101332.44;5086373;27;20377;-75
2022/05/31 09:49:50;;;;;;;0.00;0.00;;;;;;;20.67;41.58;101336.66;5087057;28;20040;-78
2022/05/31 09:52:39;;;;;;;0.15;0.15;;;;;;;20.84;41.29;101330.34;5086261;28;20138;-75
2022/05/31 09:57:50;;;;;;;0.10;0.10;;;;;;;20.89;38.89;101323.84;5070144;28;20418;-80
2022/05/31 10:00:20;;;;;;;0.00;0.00;;;;;;;20.87;36.35;101321.22;5049008;28;20036;-76
2022/05/31 10:02:59;;;;;;;0.10;0.10;;;;;;;20.97;40.27;101316.19;5050151;28;20036;-78
2022/05/31 10:05:25;;;;;;;0.15;0.15;;;;;;;20.89;36.38;101319.31;5050260;28;20485;-77
2022/05/31 10:07:51;;;;;;;0.00;0.00;;;;;;;21.00;39.87;101316.03;5051718;28;20052;-77
2022/05/31 10:13:04;;;;;;;0.00;0.00;;;;;;;21.56;40.30;101304.75;5103536;27;20386;-75
2022/05/31 10:18:12;;;;;;;0.13;0.13;;;;;;;22.17;37.53;101308.31;5128721;27;20382;-74
2022/05/31 10:20:53;;;;;;;0.10;0.10;;;;;;;22.37;36.35;101306.19;5111027;28;20511;-75
2022/05/31 10:23:22;;;;;;;0.10;0.10;;;;;;;22.50;35.17;101306.31;5129401;28;20028;-74
2022/05/31 10:25:53;;;;;;;0.20;0.20;;;;;;;22.71;32.77;101306.78;5127511;28;20032;-75
2022/05/31 10:28:41;;;;;;;0.82;0.82;;;;;;;23.03;31.89;101298.41;5128524;28;20441;-75
2022/05/31 10:31:20;;;;;;;0.10;0.10;;;;;;;23.03;33.88;101302.00;5108701;28;20027;-75
2022/05/31 10:33:53;;;;;;;0.00;0.00;;;;;;;22.87;30.36;101298.56;5127250;28;20031;-76
2022/05/31 10:36:23;;;;;;;0.00;0.00;;;;;;;22.95;33.23;101285.41;5126964;28;20098;-76
2022/05/31 10:38:51;;;;;;;0.20;0.20;;;;;;;23.11;32.66;101287.97;5128128;28;20042;-75
2022/05/31 10:41:28;;;;;;;0.10;0.10;;;;;;;23.41;32.86;101295.03;5127292;28;20504;-75
2022/05/31 10:44:05;;;;;;;0.10;0.10;;;;;;;23.66;32.50;101286.13;5127407;28;20392;-76
2022/05/31 10:46:35;;;;;;;0.17;0.17;;;;;;;23.84;29.60;101291.25;5127577;28;20015;-76
2022/05/31 10:49:10;;;;;;;0.10;0.10;;;;;;;24.06;28.48;101285.25;5127589;28;20040;-76
2022/05/31 10:57:44;;;;;;;0.10;0.10;;;;;;;24.56;28.05;101288.03;5107944;27;20343;-75
2022/05/31 11:00:21;;;;;;;0.10;0.10;;;;;;;24.58;28.77;101280.66;5108624;28;20042;-75
2022/05/31 11:03:01;;;;;;;0.00;0.00;;;;;;;24.63;28.93;101291.16;5108056;28;20558;-75
2022/05/31 11:06:01;;;;;;;0.10;0.10;;;;;;;24.67;29.33;101285.47;5108064;28;20133;-76
2022/05/31 11:12:23;;;;;;;0.47;0.47;;;;;;;24.17;29.87;101287.19;5106212;28;20035;-75
2022/05/31 11:20:44;;;;;;;0.45;0.45;;;;;;;23.40;28.78;101293.31;5114388;27;1225971;-76
2022/05/31 11:29:06;;;;;;;0.10;0.10;;;;;;;22.86;30.20;101305.78;5088078;28;20452;-76
2022/05/31 11:34:51;;;;;;;0.10;0.10;;;;;;;22.67;30.23;101310.63;5087371;28;20333;-75
2022/05/31 11:37:33;;;;;;;0.00;0.00;;;;;;;22.44;27.97;101307.56;5087621;28;20028;-76
2022/05/31 11:43:29;;;;;;;0.10;0.10;;;;;;;22.19;29.82;101311.75;5086189;27;20044;-76
2022/05/31 11:46:38;;;;;;;0.45;0.45;;;;;;;22.12;29.93;101310.44;5087671;28;20032;-76
2022/05/31 11:49:07;;;;;;;0.08;0.08;;;;;;;22.07;30.87;101317.91;5087473;28;20032;-76
2022/05/31 11:54:37;;;;;;;0.10;0.10;;;;;;;22.18;30.86;101309.16;5115789;27;1184793;-77
2022/05/31 11:57:22;;;;;;;0.08;0.08;;;;;;;22.38;32.24;101305.25;5112085;28;20543;-77
2022/05/31 11:59:59;;;;;;;0.00;0.00;;;;;;;22.56;31.16;101298.69;5092860;28;20036;-78
2022/05/31 12:05:25;;;;;;;0.20;0.20;;;;;;;23.04;29.55;101290.22;5048544;28;20131;-77
2022/05/31 12:08:02;;;;;;;0.00;0.00;;;;;;;23.08;30.13;101289.06;5048737;27;20047;-78
2022/05/31 12:10:35;;;;;;;0.00;0.00;;;;;;;23.16;31.39;101288.56;5049780;28;20032;-77
2022/05/31 12:13:07;;;;;;;0.08;0.08;;;;;;;23.29;31.08;101279.66;5050417;28;20037;-77
2022/05/31 12:15:36;;;;;;;;;;;;;;;23.55;30.89;101286.88;5049780;28;20033;-77
2022/05/31 12:18:24;;;;;;;0.13;0.13;;;;;;;23.44;31.40;101284.03;5049610;28;19946;-77
2022/05/31 12:21:30;;;;;;;0.22;0.22;;;;;;;23.46;31.95;101284.78;5048237;28;20041;-77
2022/05/31 12:26:41;;;;;;;21.73;1.10;;;;;;;23.01;31.86;101289.56;5072143;28;20141;-78
2022/05/31 12:31:43;;;;;;;0.10;0.10;;;;;;;22.56;32.38;101295.13;5113049;27;20384;-79
2022/05/31 12:34:34;;;;;;;0.30;0.30;;;;;;;22.44;33.05;101297.66;5111918;27;20028;-77
2022/05/31 12:39:43;;;;;;;0.10;0.10;;;;;;;21.75;37.06;101301.88;5048318;28;20427;-76
2022/05/31 12:48:10;;;;;;;0.00;0.00;;;;;;;20.65;39.07;101300.84;5087674;28;20195;-76
2022/05/31 12:59:40;;;;;;;0.10;0.10;;;;;;;20.28;48.16;101323.50;5112349;27;20182;-77
2022/05/31 13:02:21;;;;;;;0.00;0.00;;;;;;;20.16;47.41;101325.03;5111452;28;20035;-77
2022/05/31 13:04:58;;;;;;;0.03;0.03;;;;;;;19.73;44.27;101334.31;5111942;28;20399;-77
2022/05/31 13:07:42;;;;;;;0.10;0.10;;;;;;;19.46;44.16;101331.22;5111837;28;20082;-77
2022/05/31 13:10:30;;;;;;;0.30;0.30;;;;;;;19.05;45.29;101320.66;5114567;28;20094;-77
2022/05/31 13:21:29;;;;;;;0.10;0.10;;;;;;;18.24;50.00;101355.66;5113003;28;20396;-77
2022/05/31 13:23:57;;;;;;;13.45;0.95;;;;;;;18.21;49.97;101342.38;5111986;28;20028;-77
2022/05/31 13:26:28;;;;;;;0.00;0.00;;;;;;;18.17;51.36;101338.06;5112897;28;20379;-77
2022/05/31 13:31:45;;;;;;;0.05;0.05;;;;;;;18.41;52.79;101325.41;5058483;28;20421;-76
2022/05/31 13:34:22;;;;;;;0.10;0.10;;;;;;;18.58;51.39;101332.69;5044287;28;20398;-76
2022/05/31 13:36:49;;;;;;;0.00;0.00;;;;;;;18.83;54.02;101332.41;5036287;28;20036;-76
2022/05/31 13:39:18;;;;;;;0.10;0.10;;;;;;;19.02;52.13;101324.38;5040247;28;20025;-76
2022/05/31 13:44:28;;;;;;;0.00;0.00;;;;;;;19.42;52.82;101336.84;5053262;28;20431;-76
2022/05/31 13:47:01;;;;;;;0.00;0.00;;;;;;;19.58;50.60;101329.75;5051542;28;20037;-75
2022/05/31 13:49:45;;;;;;;0.30;0.30;;;;;;;19.71;50.51;101329.97;5049631;28;20028;-75
2022/05/31 13:52:29;;;;;;;0.10;0.10;;;;;;;19.83;51.47;101324.00;5052263;28;20025;-76
2022/05/31 13:55:06;;;;;;;1.20;0.90;;;;;;;19.96;51.37;101332.34;5056368;28;20064;-76
2022/05/31 13:57:32;;;;;;;0.00;0.00;;;;;;;20.29;49.88;101323.44;5060900;28;20037;-76
2022/05/31 13:59:59;;;;;;;0.10;0.10;;;;;;;20.56;49.16;101328.28;5057878;28;20025;-77
2022/05/31 14:02:48;;;;;;;0.30;0.30;;;;;;;20.74;48.82;101336.34;5051734;28;20041;-77